Terminal Aerodrome Forecast
Issued by NWS

Home | Current Version | Previous Version | Text Only | Print | Product List | Glossary On
Versions: 1 2 3 4 5 6 7 8 9 10 11 12 13 14 15 16 17 18 19 20 21 22 23 24
000
FTUS43 KFGF 050539
TAFDVL
TAF
KDVL 050539Z 0506/0606 27003KT 1/2SM FZFG BKN003
     FM051100 14008KT 1SM BR BKN005
     FM051800 18006KT P6SM OVC003
     FM052200 28012KT P6SM OVC008
     FM060000 28014KT P6SM OVC008
     FM060200 30022G31KT 3SM BLSN OVC008=

USA.gov is the U.S. government's official web portal to all federal, state and local government web resources and services.